createdAt,value
2019-03-05T00:03:35.987Z,98670.91
2019-03-05T00:17:39.344Z,98652.23
2019-03-05T00:20:23.802Z,98656.56
2019-03-05T00:23:56.072Z,98662.48
2019-03-05T00:27:19.650Z,98657.96
2019-03-05T00:30:18.431Z,98668.53
2019-03-05T00:41:04.372Z,98659.19
2019-03-05T00:44:39.587Z,98664.77
2019-03-05T00:48:20.062Z,98659.82
2019-03-05T00:55:24.861Z,98664.69
2019-03-05T01:02:47.175Z,98660.25
2019-03-05T01:05:57.651Z,98656.88
2019-03-05T01:08:25.121Z,98666.91
2019-03-05T01:28:50.028Z,98697.75
2019-03-05T01:36:30.465Z,98713.66
2019-03-05T01:43:17.144Z,98717.05
2019-03-05T02:00:02.869Z,98716.77
2019-03-05T02:03:34.764Z,98725.69
2019-03-05T02:06:19.522Z,98723.62
2019-03-05T02:08:52.476Z,98733.12
2019-03-05T02:12:10.496Z,98741.28
2019-03-05T02:15:08.331Z,98746.34
2019-03-05T02:18:02.465Z,98744.22
2019-03-05T02:21:02.501Z,98743.13
2019-03-05T02:24:15.000Z,98743.13
2019-03-05T02:27:35.685Z,98731.45
2019-03-05T02:30:55.708Z,98742.45
2019-03-05T02:34:11.119Z,98740.86
2019-03-05T02:37:19.807Z,98735.45
2019-03-05T02:40:12.796Z,98748.88
2019-03-05T02:42:54.720Z,98752.88
2019-03-05T02:46:02.764Z,98742.37
2019-03-05T02:49:31.921Z,98754.59
2019-03-05T02:52:18.459Z,98748.23
2019-03-05T02:55:24.721Z,98743.08
2019-03-05T02:57:51.091Z,98751.48
2019-03-05T03:00:27.344Z,98762.05
2019-03-05T03:02:58.551Z,98759.19
2019-03-05T03:05:48.378Z,98762.77
2019-03-05T03:08:15.957Z,98760.49
2019-03-05T03:10:43.445Z,98760.49
2019-03-05T03:13:11.067Z,98758.58
2019-03-05T03:16:17.428Z,98759.27
2019-03-05T04:18:22.808Z,98806.89
2019-03-05T04:37:25.796Z,98834.00
2019-03-05T05:17:27.857Z,98853.47
2019-03-05T05:33:53.618Z,98856.84
2019-03-05T05:34:43.183Z,98855.48
2019-03-05T05:41:09.514Z,98868.50
2019-03-05T05:47:42.232Z,98881.20
2019-03-05T05:50:24.150Z,98876.34
2019-03-05T05:53:24.679Z,98877.56
2019-03-05T05:56:22.039Z,98876.25
2019-03-05T06:02:55.787Z,98877.64
2019-03-05T06:06:32.621Z,98888.25
2019-03-05T06:13:48.522Z,98863.70
2019-03-05T06:17:12.510Z,98888.00
2019-03-05T06:20:19.763Z,98898.02
2019-03-05T06:23:35.503Z,98891.25
2019-03-05T06:27:02.963Z,98888.16
2019-03-05T06:33:21.216Z,98899.45
2019-03-05T06:39:30.822Z,98906.08
2019-03-05T06:42:19.948Z,98905.81
2019-03-05T06:44:48.538Z,98904.84
2019-03-05T06:47:36.135Z,98921.78
2019-03-05T06:50:18.984Z,98911.44
2019-03-05T06:52:57.718Z,98920.78
2019-03-05T06:55:43.098Z,98918.17
2019-03-05T06:58:23.374Z,98914.00
2019-03-05T07:01:07.811Z,98923.61
2019-03-05T07:03:38.127Z,98919.17
2019-03-05T07:06:41.633Z,98922.60
2019-03-05T07:09:21.793Z,98923.48
2019-03-05T07:12:27.488Z,98925.34
2019-03-05T07:15:47.533Z,98930.62
2019-03-05T07:18:28.398Z,98933.72
2019-03-05T07:21:26.263Z,98949.36
2019-03-05T07:24:46.422Z,98944.80
2019-03-05T07:27:16.493Z,98944.91
2019-03-05T07:29:47.557Z,98937.29
2019-03-05T07:32:41.161Z,98937.66
2019-03-05T07:35:39.354Z,98945.56
2019-03-05T07:38:26.474Z,98945.64
2019-03-05T07:40:54.148Z,98954.59
2019-03-05T07:43:56.687Z,98954.33
2019-03-05T07:46:56.127Z,98944.50
2019-03-05T07:50:35.104Z,98982.30
2019-03-05T07:53:49.071Z,98982.81
2019-03-05T07:57:02.374Z,98985.55
2019-03-05T07:59:39.789Z,98993.39
2019-03-05T08:02:14.302Z,98994.78
2019-03-05T08:05:30.045Z,98999.73
2019-03-05T08:09:04.308Z,99009.82
2019-03-05T08:12:04.764Z,99009.35
2019-03-05T08:15:23.139Z,99014.28
2019-03-05T08:18:27.286Z,99013.67
2019-03-05T08:21:25.833Z,99002.33
2019-03-05T08:24:17.564Z,99003.95
2019-03-05T08:26:48.139Z,98997.42
2019-03-05T08:30:36.203Z,98998.00
2019-03-05T08:37:19.961Z,99010.15
2019-03-05T08:58:56.997Z,99040.81
2019-03-05T09:10:14.270Z,99053.41
2019-03-05T09:16:54.580Z,99062.08
2019-03-05T09:20:42.727Z,99062.52
2019-03-05T09:23:38.992Z,99073.31
2019-03-05T09:26:34.203Z,99082.16
2019-03-05T09:29:15.745Z,99076.39
2019-03-05T09:32:39.708Z,99093.48
2019-03-05T09:43:54.742Z,99101.39
2019-03-05T10:26:46.001Z,99136.58
2019-03-05T10:30:31.142Z,99132.58
2019-03-05T10:36:53.893Z,99143.45
2019-03-05T10:39:52.926Z,99134.16
2019-03-05T10:43:09.308Z,99136.84
2019-03-05T10:46:42.129Z,99149.81
2019-03-05T10:55:09.677Z,99159.02
2019-03-05T11:00:35.480Z,99168.73
2019-03-05T11:04:45.392Z,99168.38
2019-03-05T11:27:45.432Z,99183.62
2019-03-05T11:34:13.686Z,99196.73
2019-03-05T11:37:35.976Z,99199.42
2019-03-05T11:44:55.749Z,99194.64
2019-03-05T11:51:37.911Z,99214.77
2019-03-05T11:58:37.664Z,99213.32
2019-03-05T12:15:35.613Z,99252.67
2019-03-05T12:21:35.544Z,99260.78
2019-03-05T12:24:57.569Z,99258.88
2019-03-05T12:27:28.349Z,99259.52
2019-03-05T12:31:04.019Z,99255.98
2019-03-05T12:34:33.969Z,99262.64
2019-03-05T12:51:54.439Z,99269.83
2019-03-05T13:02:33.813Z,99268.34
2019-03-05T13:08:44.285Z,99278.11
2019-03-05T13:11:19.727Z,99263.84
2019-03-05T13:15:12.450Z,99262.46
2019-03-05T13:18:49.282Z,99268.05
2019-03-05T13:21:48.632Z,99277.81
2019-03-05T13:24:46.879Z,99272.13
2019-03-05T13:27:18.711Z,99281.71
2019-03-05T13:29:52.726Z,99270.17
2019-03-05T13:32:22.417Z,99283.80
2019-03-05T13:35:14.535Z,99277.13
2019-03-05T13:38:03.231Z,99280.86
2019-03-05T13:40:38.240Z,99297.36
2019-03-05T13:43:09.849Z,99294.92
2019-03-05T13:46:14.540Z,99292.56
2019-03-05T13:50:37.742Z,99289.26
2019-03-05T13:53:14.793Z,99271.27
2019-03-05T13:56:18.928Z,99274.39
2019-03-05T13:59:42.413Z,99289.00
2019-03-05T14:02:26.282Z,99288.03
2019-03-05T14:05:26.736Z,99292.23
2019-03-05T14:08:40.484Z,99284.11
2019-03-05T14:11:26.903Z,99298.95
2019-03-05T14:13:56.843Z,99295.03
2019-03-05T14:16:29.781Z,99301.50
2019-03-05T14:19:01.066Z,99305.80
2019-03-05T14:21:38.583Z,99303.29
2019-03-05T14:24:14.916Z,99294.69
2019-03-05T14:26:43.182Z,99307.97
2019-03-05T14:29:46.003Z,99311.81
2019-03-05T14:32:36.382Z,99308.17
2019-03-05T14:35:21.533Z,99316.13
2019-03-05T14:37:57.828Z,99312.77
2019-03-05T14:40:50.550Z,99316.57
2019-03-05T14:43:40.736Z,99302.13
2019-03-05T14:49:25.948Z,99310.96
2019-03-05T14:51:54.645Z,99314.77
2019-03-05T14:54:25.915Z,99316.16
2019-03-05T14:56:54.446Z,99315.63
2019-03-05T14:59:27.184Z,99321.69
2019-03-05T15:01:58.753Z,99317.43
2019-03-05T15:04:28.864Z,99313.23
2019-03-05T15:07:00.020Z,99309.39
2019-03-05T15:09:28.231Z,99318.01
2019-03-05T15:12:00.630Z,99315.76
2019-03-05T15:14:30.264Z,99314.45
2019-03-05T15:17:05.583Z,99321.70
2019-03-05T15:19:40.079Z,99322.69
2019-03-05T15:22:13.460Z,99320.92
2019-03-05T15:25:04.259Z,99329.41
2019-03-05T15:27:32.364Z,99333.28
2019-03-05T15:30:00.229Z,99341.81
2019-03-05T15:32:40.616Z,99344.44
2019-03-05T15:35:18.788Z,99339.89
2019-03-05T15:37:49.190Z,99336.57
2019-03-05T15:40:28.672Z,99343.41
2019-03-05T15:43:16.804Z,99340.61
2019-03-05T15:46:00.999Z,99342.86
2019-03-05T15:48:40.365Z,99346.81
2019-03-05T15:51:25.669Z,99340.33
2019-03-05T15:53:53.534Z,99357.12
2019-03-05T15:56:21.451Z,99355.39
2019-03-05T15:58:49.733Z,99363.16
2019-03-05T16:01:22.195Z,99362.01
2019-03-05T16:03:47.673Z,99365.11
2019-03-05T16:06:15.767Z,99374.68
2019-03-05T16:08:46.272Z,99373.09
2019-03-05T16:11:14.331Z,99392.44
2019-03-05T16:13:42.160Z,99391.73
2019-03-05T16:16:10.286Z,99398.27
2019-03-05T16:18:43.004Z,99398.06
2019-03-05T16:21:11.478Z,99397.96
2019-03-05T16:23:40.414Z,99405.36
2019-03-05T16:26:08.253Z,99409.41
2019-03-05T16:28:39.322Z,99406.09
2019-03-05T16:31:27.466Z,99402.86
2019-03-05T16:34:14.416Z,99416.28
2019-03-05T16:37:10.397Z,99426.25
2019-03-05T16:40:12.753Z,99420.95
2019-03-05T16:43:00.191Z,99424.23
2019-03-05T16:45:59.410Z,99422.04
2019-03-05T16:48:53.795Z,99439.73
2019-03-05T16:51:30.200Z,99448.59
2019-03-05T16:54:17.283Z,99452.30
2019-03-05T16:57:22.486Z,99449.24
2019-03-05T16:59:55.747Z,99450.59
2019-03-05T17:02:48.764Z,99464.46
2019-03-05T17:05:56.752Z,99471.60
2019-03-05T17:08:50.436Z,99472.20
2019-03-05T17:11:33.261Z,99477.70
2019-03-05T17:14:00.961Z,99483.59
2019-03-05T17:16:28.856Z,99487.88
2019-03-05T17:18:57.670Z,99492.20
2019-03-05T17:21:27.842Z,99490.53
2019-03-05T17:23:55.946Z,99503.86
2019-03-05T17:26:24.001Z,99505.78
2019-03-05T17:28:52.160Z,99507.97
2019-03-05T17:31:21.767Z,99513.22
2019-03-05T17:33:49.964Z,99515.47
2019-03-05T17:36:18.033Z,99523.47
2019-03-05T17:38:45.893Z,99517.16
2019-03-05T17:41:13.813Z,99530.48
2019-03-05T17:43:43.903Z,99539.06
2019-03-05T17:46:11.769Z,99538.83
2019-03-05T17:48:41.303Z,99543.56
2019-03-05T17:51:09.278Z,99543.23
2019-03-05T17:53:37.164Z,99552.72
2019-03-05T17:56:07.239Z,99560.08
2019-03-05T17:58:35.413Z,99555.69
2019-03-05T18:01:06.143Z,99573.87
2019-03-05T18:03:34.114Z,99570.20
2019-03-05T18:06:02.023Z,99574.22
2019-03-05T18:08:30.021Z,99579.45
2019-03-05T18:10:57.963Z,99579.59
2019-03-05T18:13:28.145Z,99582.89
2019-03-05T18:15:56.214Z,99584.92
2019-03-05T18:18:24.188Z,99584.09
2019-03-05T18:20:53.041Z,99592.52
2019-03-05T18:23:20.952Z,99591.70
2019-03-05T18:25:48.761Z,99589.81
2019-03-05T18:28:16.631Z,99594.41
2019-03-05T18:30:48.128Z,99600.12
2019-03-05T18:33:16.026Z,99606.41
2019-03-05T18:35:48.800Z,99601.08
2019-03-05T18:38:37.774Z,99611.28
2019-03-05T18:41:16.944Z,99613.89
2019-03-05T18:43:45.324Z,99612.34
2019-03-05T18:46:16.836Z,99616.84
2019-03-05T18:48:49.790Z,99620.41
2019-03-05T18:51:21.331Z,99617.80
2019-03-05T18:53:49.726Z,99622.16
2019-03-05T18:56:21.081Z,99622.63
2019-03-05T18:58:49.355Z,99622.23
2019-03-05T19:01:19.489Z,99620.25
2019-03-05T19:03:47.571Z,99618.84
2019-03-05T19:06:15.729Z,99619.67
2019-03-05T19:08:43.929Z,99623.02
2019-03-05T19:11:11.848Z,99632.97
2019-03-05T19:13:39.823Z,99629.98
2019-03-05T19:16:07.962Z,99633.45
2019-03-05T19:18:37.237Z,99627.74
2019-03-05T19:21:05.571Z,99631.03
2019-03-05T19:23:38.602Z,99627.84
2019-03-05T19:26:08.478Z,99627.61
2019-03-05T19:29:06.094Z,99629.41
2019-03-05T19:31:43.740Z,99630.12
2019-03-05T19:34:40.740Z,99633.89
2019-03-05T19:37:38.058Z,99642.39
2019-03-05T19:40:15.977Z,99645.95
2019-03-05T19:42:56.813Z,99650.36
2019-03-05T19:45:33.757Z,99647.17
2019-03-05T19:48:27.916Z,99651.09
2019-03-05T19:51:10.336Z,99657.36
2019-03-05T19:53:45.067Z,99660.60
2019-03-05T19:56:16.496Z,99657.45
2019-03-05T19:58:50.814Z,99665.63
2019-03-05T20:01:39.026Z,99673.69
2019-03-05T20:04:11.613Z,99664.17
2019-03-05T20:06:36.875Z,99674.59
2019-03-05T20:09:06.643Z,99672.22
2019-03-05T20:11:34.689Z,99672.57
2019-03-05T20:14:03.090Z,99675.11
2019-03-05T20:16:31.328Z,99673.36
2019-03-05T20:19:00.343Z,99673.95
2019-03-05T20:21:28.322Z,99676.77
2019-03-05T20:23:59.297Z,99680.15
2019-03-05T20:26:28.534Z,99685.33
2019-03-05T20:28:59.601Z,99678.44
2019-03-05T20:31:29.231Z,99684.09
2019-03-05T20:34:10.252Z,99687.75
2019-03-05T20:36:38.223Z,99680.98
2019-03-05T20:39:06.632Z,99678.15
2019-03-05T20:41:37.478Z,99689.56
2019-03-05T20:44:05.485Z,99683.62
2019-03-05T20:46:33.331Z,99688.00
2019-03-05T20:49:01.481Z,99688.16
2019-03-05T20:51:29.480Z,99685.17
2019-03-05T20:53:58.150Z,99686.48
2019-03-05T20:56:26.304Z,99690.04
2019-03-05T20:58:54.527Z,99687.78
2019-03-05T21:01:22.545Z,99690.61
2019-03-05T21:03:50.621Z,99699.67
2019-03-05T21:06:20.903Z,99715.16
2019-03-05T21:08:50.593Z,99710.90
2019-03-05T21:11:21.323Z,99709.59
2019-03-05T21:13:49.277Z,99709.69
2019-03-05T21:16:18.206Z,99712.71
2019-03-05T21:18:46.563Z,99722.16
2019-03-05T21:21:14.502Z,99727.41
2019-03-05T21:23:42.506Z,99724.98
2019-03-05T21:26:10.328Z,99725.59
2019-03-05T21:28:38.316Z,99728.20
2019-03-05T21:31:06.448Z,99721.07
2019-03-05T21:33:34.324Z,99730.77
2019-03-05T21:36:02.047Z,99722.66
2019-03-05T21:38:30.069Z,99733.27
2019-03-05T21:40:57.854Z,99736.30
2019-03-05T21:43:25.533Z,99734.80
2019-03-05T21:45:54.531Z,99737.97
2019-03-05T21:48:22.345Z,99744.55
2019-03-05T21:50:51.292Z,99739.65
2019-03-05T21:53:19.050Z,99736.83
2019-03-05T21:55:48.711Z,99744.72
2019-03-05T21:58:16.468Z,99746.47
2019-03-05T22:00:44.053Z,99740.48
2019-03-05T22:03:11.853Z,99743.61
2019-03-05T22:05:39.300Z,99741.34
2019-03-05T22:08:07.782Z,99744.59
2019-03-05T22:10:35.514Z,99744.38
2019-03-05T22:13:03.012Z,99744.26
2019-03-05T22:15:30.561Z,99735.30
2019-03-05T22:17:58.105Z,99731.65
2019-03-05T22:20:25.619Z,99737.12
2019-03-05T22:22:56.089Z,99741.08
2019-03-05T22:25:23.581Z,99742.95
2019-03-05T22:27:51.069Z,99747.30
2019-03-05T22:30:20.686Z,99742.77
2019-03-05T22:32:50.185Z,99741.47
2019-03-05T22:35:18.146Z,99738.42
2019-03-05T22:37:45.607Z,99744.81
2019-03-05T22:40:13.539Z,99741.73
2019-03-05T22:42:41.077Z,99749.20
2019-03-05T22:45:13.668Z,99747.55
2019-03-05T22:47:42.066Z,99749.94
2019-03-05T22:50:10.223Z,99744.59
2019-03-05T22:52:37.646Z,99748.81
2019-03-05T22:55:05.361Z,99751.68
2019-03-05T22:57:32.778Z,99753.72
2019-03-05T23:00:00.364Z,99752.81
2019-03-05T23:02:28.298Z,99754.16
2019-03-05T23:04:56.222Z,99753.41
2019-03-05T23:07:23.642Z,99757.37
2019-03-05T23:09:51.404Z,99750.20
2019-03-05T23:12:18.953Z,99756.68
2019-03-05T23:14:46.481Z,99753.37
2019-03-05T23:17:14.197Z,99756.68
2019-03-05T23:19:41.733Z,99752.16
2019-03-05T23:22:09.316Z,99755.02
2019-03-05T23:24:37.203Z,99757.67
2019-03-05T23:27:06.528Z,99758.94
2019-03-05T23:29:52.348Z,99756.11
2019-03-05T23:32:28.569Z,99753.46
2019-03-05T23:34:56.593Z,99749.91
2019-03-05T23:37:24.490Z,99748.72
2019-03-05T23:39:51.979Z,99750.50
2019-03-05T23:42:20.209Z,99753.67
2019-03-05T23:44:47.678Z,99755.95
2019-03-05T23:47:15.213Z,99756.95
2019-03-05T23:49:42.731Z,99750.73
2019-03-05T23:52:10.224Z,99749.55
2019-03-05T23:54:37.714Z,99746.06
2019-03-05T23:57:05.114Z,99746.62
2019-03-05T23:59:32.732Z,99752.95
